Register Now
 Register Now
 

Trip log for: TANK the fifth
Trip log index: Morning commute to Manchester
  • Avg: 22.02 mpg (US)
  • Max: 23.7 mpg (US) 2008-07-01
Trip date Fuel economy Details
2008-06-24 21.2 77*, 28.8 miles, 2666 rpm max, 66 mph max, 45 mph avg, ?ac
2008-06-25 22.2 78*, 28.8 miles, 2438 rpm max, 65 mph max, 45 mph avg, ?ac
2008-06-26 20.4 79*, 28.7 miles, 2807 rpm max, 70 mph max, 43 mph avg, ?ac
2008-06-27 22.1 81*, 24.9 miles, 2271 rpm max, 64 mph max, 43 mph avg, ?ac
2008-06-30 23.6 73*, 28.8 miles, 2759 rpm max, 68 mph max, 42 mph avg, NO ac
2008-07-01 23.7 70*, 28.9 miles, 2764 rpm max, 65 mph max, 41 mph avg, NO ac
2008-07-02 23.3 76*, 28.8 miles, 2181 rpm max, 68 mph max, 44 mph avg, ?ac
2008-07-03 21.8 79*, 28.8 miles, 2591 rpm max, 68 mph max, 44 mph avg, YES ac
2008-07-07 21.9 79*, 28.8 miles, 2326 rpm max, 68 mph max, 43 mph avg, YES ac
2008-07-08 21.8 84*, 28.8 miles, 2298 rpm max, 68 mph max, 45 mph avg, YES ac
2008-07-09 22.2 83*, 28.8 miles, 2189 rpm max, 66 mph max, 42 mph avg, YES ac
2008-07-10 21.9 78*, 28.8 miles, 2176 rpm max, 70 mph max, 41 mph avg, YES ac
2008-07-11 21.7 80*, 28.8 miles, 2286 rpm max, 70 mph max, 40 mph avg, YES ac
2008-07-14 21.7 74*, 28.8 miles, 2819 rpm max, 69 mph max, 45 mph avg, YES ac
2008-07-15 23.6 73*, 28.8 miles, 2295 rpm max, 67 mph max, 44 mph avg, NO ac
2008-07-16 23 73*, 28.8 miles, 2999 rpm max, 71 mph max, 42 mph avg, NO ac
2008-07-17 21.4 80*, 28.8 miles, 3189 rpm max, 70 mph max, 42 mph avg, YES ac
2008-07-18 21.6 80*, 28.8 miles, 2769 rpm max, 75 mph max, 48 mph avg, YES ac
2008-07-21 19.9 86*, 28.8 miles, 2879 rpm max, 75 mph max, 49 mph avg, YES ac
2008-07-22 21.6 85*, 28.8 miles, 2358 rpm max, 74 mph max, 46 mph avg, YES ac
2008-07-24 21.6 75*, 28.8 miles, 2868 rpm max, 71 mph max, 45 mph avg, NO ac
2008-07-25 22.4 68*, 28.8 miles, 2479 rpm max, 66 mph max, 42 mph avg, NO ac
2008-07-28 22.8 83*, 28.8 miles, 2483 rpm max, 70 mph max, 44 mph avg, YES ac
2008-07-29 22.4 84*, 28.8 miles, 2466 rpm max, 68 mph max, 42 mph avg, YES ac
2008-07-30 20.8 82*, 28.8 miles, 2511 rpm max, 70 mph max, 50 mph avg, YES ac



Powered by vBulletin® Version 3.8.11
Copyright ©2000 - 2022, vBulletin Solutions Inc.
Content Relevant URLs by vBSEO 3.5.2
All content copyright EcoModder.com